Time;durP1;ratioP1;P1;durP2;ratioP2;P2;SDS_P1;SDS_P2;PMS_P1;PMS_P2;Temp;Humidity;BMP_temperature;BMP_pressure;BME280_temperature;BME280_humidity;BME280_pressure;Samples;Min_cycle;Max_cycle;Signal;HPM_P1;HPM_P2
2022/12/15 00:39:08;;;;;;;0.25;0.20;;;23.90;99.90;;;;;;5094509;28;20768;-79
2022/12/15 00:41:39;;;;;;;0.70;0.10;;;24.10;99.90;;;;;;5094297;28;20678;-79
2022/12/15 00:44:10;;;;;;;1.15;0.10;;;24.30;99.90;;;;;;5085396;28;20231;-79
2022/12/15 00:46:54;;;;;;;0.65;0.10;;;24.40;99.90;;;;;;5090898;28;20193;-78
2022/12/15 01:20:16;;;;;;;1.40;0.50;;;23.40;99.90;;;;;;5083662;28;20200;-81
2022/12/15 01:22:48;;;;;;;1.73;0.30;;;22.90;99.90;;;;;;5083145;28;20300;-86
2022/12/15 01:25:20;;;;;;;0.45;0.25;;;22.30;99.90;;;;;;5088055;28;20196;-82
2022/12/15 01:27:53;;;;;;;0.80;0.30;;;22.00;99.90;;;;;;5088537;28;20198;-83
2022/12/15 01:30:25;;;;;;;1.55;0.40;;;22.10;99.90;;;;;;5084393;28;20219;-80
2022/12/15 01:32:56;;;;;;;1.83;0.30;;;22.30;99.90;;;;;;5088017;28;20214;-84
2022/12/15 01:35:27;;;;;;;1.65;0.60;;;22.20;99.90;;;;;;5086100;28;20193;-85
2022/12/15 01:37:58;;;;;;;2.53;0.35;;;22.10;99.90;;;;;;5084560;28;20234;-81
2022/12/15 01:40:50;;;;;;;4.05;0.55;;;21.80;99.90;;;;;;5083164;28;20299;-81
2022/12/15 01:43:23;;;;;;;1.45;0.40;;;21.60;99.90;;;;;;5086511;28;20608;-82
2022/12/15 01:46:01;;;;;;;1.38;0.30;;;21.70;99.90;;;;;;5088660;28;20196;-83
2022/12/15 01:48:39;;;;;;;2.40;0.60;;;21.90;99.90;;;;;;5083920;28;20204;-80
2022/12/15 01:51:18;;;;;;;2.30;0.50;;;22.30;99.90;;;;;;5090233;28;20195;-82
2022/12/15 01:53:55;;;;;;;2.25;0.40;;;22.50;99.90;;;;;;5085776;28;20214;-82
2022/12/15 01:56:27;;;;;;;2.40;0.40;;;22.80;99.90;;;;;;5082594;28;20251;-81
2022/12/15 01:59:02;;;;;;;1.83;0.50;;;23.10;99.90;;;;;;5086514;28;20193;-82
2022/12/15 02:01:33;;;;;;;1.75;0.43;;;23.20;99.90;;;;;;5085992;28;20249;-81
2022/12/15 02:04:04;;;;;;;1.40;0.55;;;23.30;99.90;;;;;;5080793;28;20725;-82
2022/12/15 02:06:35;;;;;;;3.10;0.20;;;23.40;99.90;;;;;;5082697;28;20199;-83
2022/12/15 02:09:06;;;;;;;0.77;0.40;;;23.50;99.90;;;;;;5077681;28;20207;-85
2022/12/15 02:11:52;;;;;;;3.42;0.45;;;23.60;99.90;;;;;;5090878;28;20192;-84
2022/12/15 02:14:34;;;;;;;3.95;0.43;;;23.60;99.90;;;;;;5085560;28;20195;-83
2022/12/15 02:17:15;;;;;;;0.80;0.45;;;23.40;99.90;;;;;;5080271;28;20188;-85
2022/12/15 02:20:11;;;;;;;1.75;0.40;;;23.60;99.90;;;;;;5084527;28;20256;-82
2022/12/15 02:23:07;;;;;;;3.30;0.60;;;23.80;99.90;;;;;;5081930;28;20218;-84
2022/12/15 02:26:13;;;;;;;3.03;0.57;;;24.00;99.90;;;;;;5084457;28;20205;-83
2022/12/15 02:28:56;;;;;;;2.72;0.50;;;23.70;99.90;;;;;;5085861;28;20269;-80
2022/12/15 02:31:52;;;;;;;3.03;0.50;;;23.90;99.90;;;;;;5082909;28;20197;-84
2022/12/15 02:34:29;;;;;;;3.53;0.45;;;23.90;99.90;;;;;;5083267;28;20284;-84
2022/12/15 02:37:03;;;;;;;3.35;0.60;;;23.80;99.90;;;;;;5084644;28;20243;-81
2022/12/15 02:39:33;;;;;;;3.22;0.47;;;23.60;99.90;;;;;;5091092;28;20601;-79
2022/12/15 02:42:04;;;;;;;3.15;0.60;;;23.60;99.90;;;;;;5082163;28;20218;-83
2022/12/15 02:44:38;;;;;;;2.15;0.60;;;23.50;99.90;;;;;;5083015;28;20292;-82
2022/12/15 02:47:24;;;;;;;2.83;0.60;;;23.50;99.90;;;;;;5082077;28;20200;-81
2022/12/15 02:50:17;;;;;;;1.75;0.60;;;23.40;99.90;;;;;;5091216;28;20186;-78
2022/12/15 02:52:59;;;;;;;3.92;0.68;;;23.40;99.90;;;;;;5087053;28;20184;-82
2022/12/15 02:55:40;;;;;;;3.30;0.70;;;23.10;99.90;;;;;;5082435;28;20275;-78
2022/12/15 02:58:16;;;;;;;3.80;0.75;;;22.90;99.90;;;;;;5081018;28;20188;-81
2022/12/15 03:00:52;;;;;;;4.50;0.50;;;23.00;99.90;;;;;;5081721;28;20189;-82
2022/12/15 03:03:26;;;;;;;3.65;0.93;;;23.10;99.90;;;;;;5079953;28;20208;-79
2022/12/15 03:06:01;;;;;;;3.95;0.90;;;22.90;99.90;;;;;;5081090;28;20188;-87
2022/12/15 03:08:31;;;;;;;5.25;0.90;;;23.00;99.90;;;;;;5084337;28;20180;-80
2022/12/15 03:11:03;;;;;;;3.53;0.80;;;22.90;99.90;;;;;;5085607;28;20185;-85
2022/12/15 03:13:34;;;;;;;3.45;0.85;;;22.90;99.90;;;;;;5078087;28;20193;-84
2022/12/15 03:16:04;;;;;;;4.43;0.77;;;23.00;99.90;;;;;;5087890;28;20184;-81
2022/12/15 03:18:38;;;;;;;3.63;0.70;;;23.10;99.90;;;;;;5082723;28;20188;-79
2022/12/15 03:21:10;;;;;;;6.53;0.95;;;23.20;99.90;;;;;;5083435;28;20347;-79
2022/12/15 03:23:40;;;;;;;6.18;1.58;;;23.10;99.90;;;;;;5082941;28;20209;-80
2022/12/15 03:26:11;;;;;;;7.20;1.20;;;23.10;99.90;;;;;;5085976;28;20192;-81
2022/12/15 03:28:42;;;;;;;7.38;1.73;;;23.10;99.90;;;;;;5080999;28;20231;-79
2022/12/15 03:31:13;;;;;;;5.88;1.20;;;23.00;99.90;;;;;;5084816;28;20203;-78
2022/12/15 03:33:45;;;;;;;5.80;1.33;;;22.90;99.90;;;;;;5084691;28;20192;-80
2022/12/15 03:36:16;;;;;;;6.20;0.90;;;23.00;99.90;;;;;;5082243;28;20188;-82
2022/12/15 03:38:47;;;;;;;4.85;1.00;;;22.90;99.90;;;;;;5080099;28;20235;-79
2022/12/15 03:41:18;;;;;;;5.07;1.13;;;22.80;99.90;;;;;;5081133;28;20193;-81
2022/12/15 03:43:49;;;;;;;6.00;0.90;;;22.70;99.90;;;;;;5081712;28;20278;-79
2022/12/15 03:46:20;;;;;;;3.70;0.80;;;22.70;99.90;;;;;;5078790;28;20204;-79
2022/12/15 03:48:53;;;;;;;4.78;0.90;;;22.70;99.90;;;;;;5085164;28;20201;-78
2022/12/15 03:51:23;;;;;;;4.43;0.90;;;22.70;99.90;;;;;;5084963;28;20200;-80
2022/12/15 03:53:54;;;;;;;7.80;1.30;;;22.80;99.90;;;;;;5077807;28;20215;-80
2022/12/15 03:56:25;;;;;;;4.93;1.00;;;22.90;99.90;;;;;;5082308;28;20192;-79
2022/12/15 03:58:56;;;;;;;7.88;1.10;;;23.00;99.90;;;;;;5086188;28;20284;-83
2022/12/15 04:01:31;;;;;;;5.85;0.98;;;22.90;99.90;;;;;;5090914;28;20195;-80
2022/12/15 04:04:05;;;;;;;3.67;0.93;;;22.70;99.90;;;;;;5085658;28;20222;-79
2022/12/15 04:06:36;;;;;;;7.07;1.20;;;22.70;99.90;;;;;;5089277;28;20253;-80
2022/12/15 04:09:07;;;;;;;6.85;1.10;;;22.70;99.90;;;;;;5085273;28;20197;-79
2022/12/15 04:11:38;;;;;;;4.20;0.90;;;22.70;99.90;;;;;;5084547;28;20235;-81
2022/12/15 04:14:10;;;;;;;5.88;0.98;;;22.60;99.90;;;;;;5082555;28;20209;-79
2022/12/15 04:16:41;;;;;;;3.80;0.77;;;22.70;99.90;;;;;;5084745;28;20662;-78
2022/12/15 04:22:15;;;;;;;4.45;1.00;;;22.80;99.90;;;;;;5048607;28;20232;-88
2022/12/15 05:31:53;;;;;;;5.30;1.00;;;21.80;99.90;;;;;;5087169;28;20215;-80
2022/12/15 05:34:26;;;;;;;4.35;1.02;;;21.90;99.90;;;;;;5084454;28;20628;-81
2022/12/15 05:37:00;;;;;;;8.95;1.25;;;21.90;99.90;;;;;;5083978;28;20646;-85
2022/12/15 05:39:31;;;;;;;5.65;1.45;;;22.00;99.90;;;;;;5089646;28;20246;-85
2022/12/15 05:42:04;;;;;;;6.82;1.27;;;21.90;99.90;;;;;;5084194;28;20184;-83
2022/12/15 05:44:35;;;;;;;6.22;0.93;;;22.00;99.90;;;;;;5085620;28;20697;-81
2022/12/15 05:47:07;;;;;;;4.90;1.10;;;21.80;99.90;;;;;;5088949;28;20657;-81
2022/12/15 05:49:38;;;;;;;7.15;1.40;;;21.70;99.90;;;;;;5090503;28;20734;-83
2022/12/15 05:52:09;;;;;;;6.40;1.15;;;21.70;99.90;;;;;;5086892;28;20545;-86
2022/12/15 05:54:41;;;;;;;7.35;1.10;;;21.60;99.90;;;;;;5088937;28;20196;-82
2022/12/15 05:57:13;;;;;;;5.97;1.10;;;21.50;99.90;;;;;;5084877;28;20272;-81
2022/12/15 05:59:44;;;;;;;5.75;1.13;;;21.40;99.90;;;;;;5083156;28;20232;-84
2022/12/15 06:02:15;;;;;;;7.95;1.25;;;21.20;99.90;;;;;;5086452;28;20666;-80
2022/12/15 06:04:46;;;;;;;6.38;1.50;;;21.20;99.90;;;;;;5082618;28;20227;-84
2022/12/15 06:07:16;;;;;;;6.28;1.10;;;21.10;99.90;;;;;;5086435;28;20193;-84
2022/12/15 06:09:48;;;;;;;5.70;1.10;;;21.10;99.90;;;;;;5083834;28;20188;-82
2022/12/15 06:12:20;;;;;;;9.98;1.35;;;21.10;99.90;;;;;;5085658;28;20197;-82
2022/12/15 06:14:51;;;;;;;6.68;1.17;;;21.10;99.90;;;;;;5082695;28;20198;-82
2022/12/15 06:17:22;;;;;;;7.90;1.25;;;21.10;99.90;;;;;;5083347;28;20192;-83
2022/12/15 06:19:53;;;;;;;7.50;1.30;;;21.10;99.90;;;;;;5084327;28;20298;-79
2022/12/15 06:22:23;;;;;;;7.95;1.20;;;21.00;99.90;;;;;;5081133;28;20181;-83
2022/12/15 06:24:54;;;;;;;6.90;1.30;;;20.80;99.90;;;;;;5078585;28;20555;-80
2022/12/15 06:27:27;;;;;;;6.75;1.20;;;20.70;99.90;;;;;;5083462;28;20555;-82
2022/12/15 06:29:58;;;;;;;7.80;1.30;;;20.50;99.90;;;;;;5084907;28;20198;-88
2022/12/15 06:32:28;;;;;;;8.95;1.40;;;20.40;99.90;;;;;;5083707;28;20192;-81
2022/12/15 06:34:59;;;;;;;8.57;1.10;;;20.40;99.90;;;;;;5087751;28;20192;-86
2022/12/15 06:37:30;;;;;;;7.28;0.95;;;20.40;99.90;;;;;;5079003;28;20561;-83
2022/12/15 06:40:01;;;;;;;9.80;1.17;;;20.50;99.90;;;;;;5084594;28;20569;-80
2022/12/15 06:42:34;;;;;;;5.60;1.00;;;20.50;99.90;;;;;;5081006;28;20319;-81
2022/12/15 06:45:04;;;;;;;7.90;1.30;;;20.50;99.90;;;;;;5086572;28;20207;-81
2022/12/15 06:47:35;;;;;;;6.47;1.23;;;20.50;99.90;;;;;;5084212;28;20199;-84
2022/12/15 06:50:06;;;;;;;8.98;1.20;;;20.60;99.90;;;;;;5084827;28;20215;-84
2022/12/15 06:52:37;;;;;;;10.90;1.20;;;20.60;99.90;;;;;;5085418;28;20283;-84
2022/12/15 06:55:08;;;;;;;7.38;1.30;;;20.60;99.90;;;;;;5086714;28;20196;-81
2022/12/15 06:57:41;;;;;;;9.05;1.40;;;20.60;99.90;;;;;;5085414;28;20188;-81
2022/12/15 07:00:14;;;;;;;5.80;1.08;;;20.60;99.90;;;;;;5092982;28;20204;-81
2022/12/15 07:02:45;;;;;;;8.15;1.40;;;20.50;99.90;;;;;;5093430;28;20228;-83
2022/12/15 07:05:16;;;;;;;8.10;2.00;;;20.40;99.90;;;;;;5090685;28;20211;-80
2022/12/15 07:07:46;;;;;;;9.60;1.75;;;20.30;99.90;;;;;;5093069;28;20248;-85
2022/12/15 07:10:17;;;;;;;9.23;1.27;;;20.20;99.90;;;;;;5089668;28;20192;-81
2022/12/15 07:12:50;;;;;;;8.80;1.75;;;20.20;99.90;;;;;;5093748;28;20192;-79
2022/12/15 07:15:21;;;;;;;10.05;1.67;;;20.10;99.90;;;;;;5090402;28;20332;-80
2022/12/15 07:17:51;;;;;;;8.52;1.58;;;20.20;99.90;;;;;;5079934;28;20185;-77
2022/12/15 07:20:22;;;;;;;15.25;2.00;;;20.20;99.90;;;;;;5073003;28;20189;-82
2022/12/15 07:22:54;;;;;;;11.85;1.80;;;20.30;99.90;;;;;;5089373;28;20203;-82
2022/12/15 07:25:25;;;;;;;11.32;2.10;;;20.30;99.90;;;;;;5093545;28;20271;-81
2022/12/15 07:27:57;;;;;;;11.75;1.70;;;20.30;99.90;;;;;;5090087;28;20200;-78
2022/12/15 07:30:28;;;;;;;9.60;1.50;;;20.30;99.90;;;;;;5093448;28;20195;-82
2022/12/15 07:32:59;;;;;;;11.68;1.75;;;20.10;99.90;;;;;;5092529;28;20206;-82
2022/12/15 07:35:29;;;;;;;10.52;1.77;;;20.00;99.90;;;;;;5097338;28;20188;-83
2022/12/15 07:38:00;;;;;;;13.35;2.03;;;19.90;99.90;;;;;;5095131;28;20227;-80
2022/12/15 07:40:31;;;;;;;7.75;1.70;;;19.80;99.90;;;;;;5096358;28;20534;-82
2022/12/15 07:43:04;;;;;;;9.15;1.67;;;19.80;99.90;;;;;;5094106;28;20578;-81
2022/12/15 07:45:35;;;;;;;14.00;1.73;;;19.70;99.90;;;;;;5088754;28;20678;-80
2022/12/15 07:48:06;;;;;;;7.53;1.45;;;19.70;99.90;;;;;;5094824;28;20557;-80
2022/12/15 07:50:38;;;;;;;11.68;1.58;;;19.70;99.90;;;;;;5092268;28;20192;-82
2022/12/15 07:53:09;;;;;;;4.85;1.35;;;19.70;99.90;;;;;;5095315;28;20211;-79
2022/12/15 07:55:40;;;;;;;11.57;1.85;;;19.60;99.90;;;;;;5091771;28;21253;-80
2022/12/15 07:58:12;;;;;;;10.25;1.70;;;19.60;99.90;;;;;;5095714;28;20202;-83
2022/12/15 08:00:43;;;;;;;11.88;1.60;;;19.70;99.90;;;;;;5094517;28;20200;-79
2022/12/15 08:03:14;;;;;;;9.25;1.90;;;19.80;99.90;;;;;;5091823;28;20207;-81
2022/12/15 08:05:44;;;;;;;10.45;1.85;;;19.60;99.90;;;;;;5092788;28;20197;-80
2022/12/15 08:08:17;;;;;;;15.02;2.45;;;19.60;99.90;;;;;;5092720;28;20279;-79
2022/12/15 08:10:48;;;;;;;12.73;1.92;;;19.50;99.90;;;;;;5093682;28;20561;-78
2022/12/15 08:13:21;;;;;;;8.07;1.45;;;19.40;99.90;;;;;;5093356;28;20204;-78
2022/12/15 08:15:55;;;;;;;10.07;1.73;;;19.40;99.90;;;;;;5094147;28;20279;-77
2022/12/15 08:18:26;;;;;;;11.20;1.88;;;19.40;99.90;;;;;;5086113;28;20196;-80
2022/12/15 08:20:57;;;;;;;11.15;1.80;;;19.40;99.90;;;;;;5095730;28;20196;-82
2022/12/15 08:23:28;;;;;;;12.02;1.73;;;19.30;99.90;;;;;;5094837;28;20618;-79
2022/12/15 08:26:06;;;;;;;7.40;1.70;;;19.00;99.90;;;;;;5093161;28;20192;-81
2022/12/15 08:28:39;;;;;;;9.00;1.77;;;18.90;99.90;;;;;;5092709;28;20280;-80
2022/12/15 08:31:12;;;;;;;10.00;2.25;;;18.90;99.90;;;;;;5089631;28;20288;-77
2022/12/15 08:33:43;;;;;;;12.93;2.05;;;18.80;99.90;;;;;;5092736;28;20200;-78
2022/12/15 08:36:16;;;;;;;11.40;2.00;;;18.80;99.90;;;;;;5091553;28;20203;-79
2022/12/15 08:38:48;;;;;;;9.30;1.90;;;18.80;99.90;;;;;;5080326;28;20239;-80
2022/12/15 08:41:22;;;;;;;11.80;1.67;;;18.70;99.90;;;;;;5084166;28;20196;-78
2022/12/15 08:43:55;;;;;;;10.68;1.65;;;18.70;99.90;;;;;;5090494;28;20224;-79
2022/12/15 08:46:27;;;;;;;9.30;1.63;;;18.60;99.90;;;;;;5090582;28;20201;-78
2022/12/15 08:48:58;;;;;;;7.68;1.40;;;18.60;99.90;;;;;;5092862;28;20203;-80
2022/12/15 08:51:32;;;;;;;7.30;1.52;;;18.60;99.90;;;;;;5085661;28;20209;-79
2022/12/15 08:54:03;;;;;;;10.23;1.50;;;18.60;99.90;;;;;;5091485;28;20196;-82
2022/12/15 08:56:34;;;;;;;8.23;1.33;;;18.50;99.90;;;;;;5094294;28;20206;-81
2022/12/15 08:59:06;;;;;;;9.63;1.75;;;18.50;99.90;;;;;;5092172;28;20193;-79
2022/12/15 09:01:39;;;;;;;11.73;1.83;;;18.50;99.90;;;;;;5094511;28;20287;-78
2022/12/15 09:04:09;;;;;;;13.73;2.25;;;18.50;99.90;;;;;;5094377;28;20702;-81
2022/12/15 09:06:40;;;;;;;11.60;1.83;;;18.50;99.90;;;;;;5080032;28;20204;-81
2022/12/15 09:09:13;;;;;;;9.30;1.75;;;18.50;99.90;;;;;;5083091;28;20196;-75
2022/12/15 09:11:44;;;;;;;15.82;2.13;;;18.40;99.90;;;;;;5089300;28;20196;-77
2022/12/15 09:14:17;;;;;;;12.43;2.25;;;18.40;99.90;;;;;;5094451;28;20200;-77
2022/12/15 09:16:48;;;;;;;11.73;1.70;;;18.30;99.90;;;;;;5078252;28;20214;-76
2022/12/15 09:19:19;;;;;;;9.75;1.85;;;18.30;99.90;;;;;;5090409;28;20188;-75
2022/12/15 09:21:50;;;;;;;12.40;1.98;;;18.20;99.90;;;;;;5095218;28;20192;-79
2022/12/15 09:24:23;;;;;;;10.05;1.85;;;18.20;99.90;;;;;;5088243;28;20221;-77
2022/12/15 09:26:53;;;;;;;10.52;2.17;;;18.20;99.90;;;;;;5094378;28;20210;-76
2022/12/15 09:29:26;;;;;;;9.95;2.10;;;18.10;99.90;;;;;;5089730;28;20278;-79
2022/12/15 09:31:58;;;;;;;10.32;1.90;;;18.10;99.90;;;;;;5090793;28;20565;-81
2022/12/15 09:34:29;;;;;;;11.23;1.88;;;18.10;99.90;;;;;;5084635;28;20265;-80
2022/12/15 09:36:59;;;;;;;10.70;2.17;;;18.00;99.90;;;;;;5097584;28;20196;-80
2022/12/15 09:39:31;;;;;;;10.07;1.85;;;18.00;99.90;;;;;;5098747;28;20331;-78
2022/12/15 09:42:03;;;;;;;13.02;2.20;;;18.00;99.90;;;;;;5092353;28;20231;-79
2022/12/15 09:44:36;;;;;;;11.25;2.05;;;17.90;99.90;;;;;;5080222;28;20270;-78
2022/12/15 09:47:19;;;;;;;12.40;1.90;;;17.90;99.90;;;;;;5084060;28;20280;-79
2022/12/15 09:49:57;;;;;;;13.63;2.22;;;17.90;99.90;;;;;;5093906;28;20210;-78
2022/12/15 09:52:30;;;;;;;12.90;2.15;;;17.90;99.90;;;;;;5089705;28;20211;-79
2022/12/15 09:55:02;;;;;;;8.35;1.55;;;17.90;99.90;;;;;;5093579;28;20195;-80
2022/12/15 09:57:42;;;;;;;8.75;1.65;;;17.90;99.90;;;;;;5091246;28;20207;-81
2022/12/15 10:00:24;;;;;;;14.27;2.05;;;17.90;99.90;;;;;;5092169;28;20283;-81
2022/12/15 10:03:22;;;;;;;11.68;2.00;;;17.90;99.90;;;;;;5092618;28;20195;-83
2022/12/15 10:06:06;;;;;;;21.05;2.05;;;17.80;99.90;;;;;;5090751;28;20230;-80
2022/12/15 10:08:39;;;;;;;10.07;2.00;;;17.80;99.90;;;;;;5084649;28;20671;-80
2022/12/15 10:11:20;;;;;;;15.20;1.92;;;17.90;99.90;;;;;;5089034;28;20250;-79
2022/12/15 10:13:58;;;;;;;10.85;1.95;;;17.80;99.90;;;;;;5087459;28;20189;-78
2022/12/15 10:16:37;;;;;;;7.97;1.50;;;17.80;99.90;;;;;;5089341;28;20224;-81
2022/12/15 10:19:14;;;;;;;13.02;2.00;;;17.80;99.90;;;;;;5091193;28;20227;-80
2022/12/15 10:21:45;;;;;;;12.00;2.00;;;17.80;99.90;;;;;;5088543;28;20204;-80
2022/12/15 10:24:19;;;;;;;8.52;1.80;;;17.80;99.90;;;;;;5091420;28;20223;-78
2022/12/15 10:27:00;;;;;;;10.63;1.40;;;17.70;99.90;;;;;;5087656;28;20207;-79
2022/12/15 10:29:42;;;;;;;7.32;1.35;;;17.70;99.90;;;;;;5073468;28;20269;-78
2022/12/15 10:32:20;;;;;;;7.90;1.50;;;17.70;99.90;;;;;;5090813;28;20196;-78
2022/12/15 10:34:50;;;;;;;9.82;1.67;;;17.60;99.90;;;;;;5089415;28;20198;-79
2022/12/15 10:37:23;;;;;;;5.80;1.40;;;17.60;99.90;;;;;;5092847;28;20188;-79
2022/12/15 10:39:54;;;;;;;8.70;1.63;;;17.70;99.90;;;;;;5089240;28;20702;-78
2022/12/15 10:42:26;;;;;;;11.30;1.48;;;17.60;99.90;;;;;;5090646;28;20215;-78
2022/12/15 10:44:58;;;;;;;14.05;1.80;;;17.60;99.90;;;;;;5087162;28;20548;-80
2022/12/15 10:47:33;;;;;;;10.95;1.60;;;17.60;99.90;;;;;;5093554;28;20246;-77
2022/12/15 10:50:23;;;;;;;10.52;1.45;;;17.60;99.90;;;;;;5088976;28;20198;-78
2022/12/15 10:52:54;;;;;;;10.20;1.88;;;17.70;99.90;;;;;;5082690;28;20192;-77
2022/12/15 10:55:41;;;;;;;7.13;1.50;;;17.60;99.90;;;;;;5072695;28;20659;-76
2022/12/15 10:58:19;;;;;;;7.22;1.30;;;17.60;99.90;;;;;;5092224;28;20606;-82
2022/12/15 11:01:05;;;;;;;7.95;1.15;;;17.50;99.90;;;;;;5082175;28;20204;-76
2022/12/15 11:03:41;;;;;;;6.70;1.30;;;17.50;99.90;;;;;;5091774;28;20193;-78
2022/12/15 11:06:18;;;;;;;6.80;1.23;;;17.40;99.90;;;;;;5091230;28;20249;-76
2022/12/15 11:08:50;;;;;;;10.45;1.63;;;17.40;99.90;;;;;;5081051;28;20206;-79
2022/12/15 11:14:19;;;;;;;11.48;1.52;;;17.40;99.90;;;;;;5083638;28;20288;-79
2022/12/15 11:16:53;;;;;;;7.65;1.50;;;17.40;99.90;;;;;;5078999;28;20292;-78
2022/12/15 11:19:35;;;;;;;11.52;1.52;;;17.40;99.90;;;;;;5077333;28;20197;-77
2022/12/15 11:22:13;;;;;;;8.75;1.52;;;17.30;99.90;;;;;;5080074;28;20189;-79
2022/12/15 11:24:50;;;;;;;6.13;1.50;;;17.30;99.90;;;;;;5089248;28;20699;-80
2022/12/15 11:27:27;;;;;;;7.88;1.30;;;17.30;99.90;;;;;;5082347;28;20199;-79
2022/12/15 11:30:12;;;;;;;8.77;1.42;;;17.30;99.90;;;;;;5093297;28;20206;-80
2022/12/15 11:32:45;;;;;;;8.05;1.40;;;17.30;99.90;;;;;;5089762;28;20235;-80
2022/12/15 11:35:21;;;;;;;6.18;1.45;;;17.30;99.90;;;;;;5093214;28;20193;-80
2022/12/15 11:37:58;;;;;;;6.13;1.15;;;17.30;99.90;;;;;;5082752;28;20230;-78
2022/12/15 11:40:37;;;;;;;10.75;1.50;;;17.20;99.90;;;;;;5091852;28;20652;-83
2022/12/15 11:43:32;;;;;;;7.45;1.42;;;17.20;99.90;;;;;;5087627;28;20228;-86
2022/12/15 11:46:14;;;;;;;8.20;1.40;;;17.20;99.90;;;;;;5090524;28;20216;-79
2022/12/15 11:49:05;;;;;;;9.32;1.35;;;17.20;99.90;;;;;;5092382;28;20200;-81
2022/12/15 11:51:45;;;;;;;9.27;1.70;;;17.20;99.90;;;;;;5084857;28;20227;-78
2022/12/15 11:54:23;;;;;;;10.30;1.58;;;17.20;99.90;;;;;;5085813;28;20636;-81
2022/12/15 11:56:58;;;;;;;8.77;1.60;;;17.20;99.90;;;;;;5086388;28;20196;-79
2022/12/15 12:00:03;;;;;;;8.43;1.15;;;17.20;99.90;;;;;;5080873;28;20194;-84
2022/12/15 12:02:55;;;;;;;7.03;1.20;;;17.20;99.90;;;;;;5084329;28;20200;-81
2022/12/15 12:05:46;;;;;;;11.68;1.67;;;17.20;99.90;;;;;;5081398;28;20337;-79
2022/12/15 12:08:37;;;;;;;7.88;1.50;;;17.20;99.90;;;;;;5088908;28;20201;-80
2022/12/15 12:11:13;;;;;;;8.27;1.30;;;17.20;99.90;;;;;;5083739;28;20193;-77
2022/12/15 12:13:54;;;;;;;6.55;1.30;;;17.10;99.90;;;;;;5080645;28;20238;-79
2022/12/15 12:16:39;;;;;;;9.25;1.55;;;17.10;99.90;;;;;;5076432;28;20592;-78
2022/12/15 12:19:14;;;;;;;10.30;1.35;;;17.10;99.90;;;;;;5084382;28;20196;-78
2022/12/15 12:21:47;;;;;;;6.75;1.27;;;17.10;99.90;;;;;;5088972;28;20192;-76
2022/12/15 12:24:26;;;;;;;9.18;1.40;;;17.10;99.90;;;;;;5083651;28;20189;-80
2022/12/15 12:27:02;;;;;;;5.30;1.20;;;17.00;99.90;;;;;;5090786;28;20530;-78
2022/12/15 12:29:37;;;;;;;7.47;1.35;;;17.00;99.90;;;;;;5083428;28;20555;-83
2022/12/15 12:32:13;;;;;;;7.30;1.38;;;16.80;99.90;;;;;;5094725;28;20219;-78
2022/12/15 12:35:01;;;;;;;8.80;1.42;;;16.70;99.90;;;;;;5086396;28;20598;-78
2022/12/15 12:37:40;;;;;;;7.57;1.30;;;16.60;99.90;;;;;;5085248;28;20676;-81
2022/12/15 12:40:21;;;;;;;9.60;1.40;;;16.50;99.90;;;;;;5087683;28;20651;-78
2022/12/15 12:42:55;;;;;;;8.57;1.23;;;16.50;99.90;;;;;;5081059;28;20224;-78
2022/12/15 12:45:29;;;;;;;7.07;1.30;;;16.50;99.90;;;;;;5084129;28;20209;-79
2022/12/15 12:48:04;;;;;;;6.68;1.30;;;16.50;99.90;;;;;;5086823;28;20206;-79
2022/12/15 12:50:37;;;;;;;7.18;1.10;;;16.50;99.90;;;;;;5085123;28;20184;-79
2022/12/15 12:53:07;;;;;;;7.43;1.42;;;16.50;99.90;;;;;;5081607;28;20203;-78
2022/12/15 12:55:43;;;;;;;7.93;1.10;;;16.60;99.90;;;;;;5092935;28;20272;-81
2022/12/15 12:58:35;;;;;;;9.20;1.33;;;16.50;99.90;;;;;;5084557;28;20196;-82
2022/12/15 13:01:20;;;;;;;9.50;1.58;;;16.60;99.90;;;;;;5090377;28;20204;-79
2022/12/15 13:04:09;;;;;;;9.52;1.20;;;16.50;99.90;;;;;;5086940;28;20635;-80
2022/12/15 13:07:04;;;;;;;9.55;1.48;;;16.40;99.90;;;;;;5089613;28;20706;-83
2022/12/15 13:09:43;;;;;;;6.25;0.98;;;16.20;99.90;;;;;;5088341;28;20651;-80
2022/12/15 13:12:38;;;;;;;7.03;1.15;;;16.00;99.90;;;;;;5086062;28;20201;-81
2022/12/15 13:15:16;;;;;;;7.93;1.15;;;15.90;99.90;;;;;;5089115;28;20197;-81
2022/12/15 13:17:53;;;;;;;6.28;1.10;;;15.80;99.90;;;;;;5087471;28;20192;-79
2022/12/15 13:20:28;;;;;;;5.70;1.33;;;15.80;99.90;;;;;;5085265;28;20190;-79
2022/12/15 13:23:34;;;;;;;4.50;0.93;;;15.70;99.90;;;;;;5087507;28;20196;-81
2022/12/15 13:26:16;;;;;;;5.05;1.10;;;15.70;99.90;;;;;;5087730;28;20223;-82
2022/12/15 13:28:57;;;;;;;6.45;1.30;;;15.70;99.90;;;;;;5082499;28;20211;-86
2022/12/15 13:31:31;;;;;;;8.27;1.10;;;15.70;99.90;;;;;;5085208;28;20202;-80
2022/12/15 13:34:20;;;;;;;7.90;1.20;;;15.70;99.90;;;;;;5083775;28;20196;-80
2022/12/15 13:36:57;;;;;;;7.43;0.95;;;15.70;99.90;;;;;;5069942;28;20215;-81
2022/12/15 13:39:52;;;;;;;3.97;0.82;;;15.80;99.90;;;;;;5079969;28;20232;-79
2022/12/15 13:42:41;;;;;;;5.82;0.90;;;15.80;99.90;;;;;;5079099;28;20213;-80
2022/12/15 13:45:47;;;;;;;7.22;1.33;;;15.90;99.90;;;;;;5084451;28;20208;-79
2022/12/15 13:48:38;;;;;;;8.02;1.23;;;15.80;99.90;;;;;;5078710;28;20192;-79
2022/12/15 13:51:33;;;;;;;8.23;1.10;;;15.70;99.90;;;;;;5080118;28;20205;-80
2022/12/15 13:54:14;;;;;;;7.47;0.85;;;15.60;99.90;;;;;;5084435;28;20272;-81
2022/12/15 13:57:02;;;;;;;8.95;1.17;;;15.50;99.90;;;;;;5081711;28;20188;-78
2022/12/15 13:59:43;;;;;;;6.03;1.20;;;15.50;99.90;;;;;;5086258;28;20279;-80
2022/12/15 14:02:33;;;;;;;5.20;1.00;;;15.40;99.90;;;;;;5083343;28;20202;-80
2022/12/15 14:05:16;;;;;;;3.75;0.93;;;15.50;99.90;;;;;;5082475;28;20192;-80
2022/12/15 14:07:49;;;;;;;4.88;1.00;;;15.40;99.90;;;;;;5084388;28;20667;-80
2022/12/15 14:10:23;;;;;;;8.15;1.13;;;15.40;99.90;;;;;;5082965;28;20657;-80
2022/12/15 14:12:57;;;;;;;7.30;1.20;;;15.40;99.90;;;;;;5085227;28;20200;-79
2022/12/15 14:15:30;;;;;;;6.97;1.30;;;15.50;99.90;;;;;;5087707;28;20542;-81
2022/12/15 14:18:04;;;;;;;5.72;1.20;;;15.50;99.90;;;;;;5082507;28;20192;-81
2022/12/15 14:20:42;;;;;;;4.80;1.02;;;15.50;99.90;;;;;;5081458;28;20199;-81
2022/12/15 14:23:22;;;;;;;9.07;1.10;;;15.60;99.90;;;;;;5084808;28;20197;-81
2022/12/15 14:25:57;;;;;;;6.18;1.13;;;15.60;99.90;;;;;;5080663;28;20560;-80
2022/12/15 14:28:31;;;;;;;6.15;1.20;;;15.60;99.90;;;;;;5086687;28;20199;-81
2022/12/15 14:31:07;;;;;;;6.85;1.10;;;15.60;99.90;;;;;;5080324;28;20188;-81
2022/12/15 14:33:44;;;;;;;6.07;1.10;;;15.50;99.90;;;;;;5083343;28;20207;-81
2022/12/15 14:36:16;;;;;;;8.25;1.30;;;15.50;99.90;;;;;;5083735;28;20267;-80
2022/12/15 14:38:51;;;;;;;7.18;1.20;;;15.40;99.90;;;;;;5084876;28;20235;-81
2022/12/15 14:41:25;;;;;;;9.63;1.10;;;15.40;99.90;;;;;;5080217;28;20184;-82
2022/12/15 14:44:00;;;;;;;7.03;1.30;;;15.40;99.90;;;;;;5078727;28;20319;-79
2022/12/15 14:46:31;;;;;;;6.25;1.30;;;15.40;99.90;;;;;;5081384;28;20222;-80
2022/12/15 14:49:06;;;;;;;5.90;1.00;;;15.40;99.90;;;;;;5080448;28;20207;-81
2022/12/15 14:51:45;;;;;;;8.40;1.20;;;15.30;99.90;;;;;;5082694;28;20196;-79
2022/12/15 14:54:34;;;;;;;6.45;1.02;;;15.20;99.90;;;;;;5083196;28;20218;-80
2022/12/15 14:57:15;;;;;;;5.15;0.85;;;15.20;99.90;;;;;;5077507;28;20631;-80
2022/12/15 14:59:47;;;;;;;5.47;1.30;;;15.30;99.90;;;;;;5079929;28;20196;-79
2022/12/15 15:02:23;;;;;;;6.90;1.00;;;15.20;99.90;;;;;;5082115;28;20203;-80
2022/12/15 15:05:06;;;;;;;7.72;1.20;;;15.20;99.90;;;;;;5081822;28;20196;-80
2022/12/15 15:07:39;;;;;;;5.78;1.20;;;15.20;99.90;;;;;;5080885;28;20576;-80
2022/12/15 15:10:24;;;;;;;9.68;1.35;;;15.20;99.90;;;;;;5082819;28;20210;-81
2022/12/15 15:12:56;;;;;;;5.00;0.95;;;15.20;99.90;;;;;;5082694;28;20200;-80
2022/12/15 15:15:28;;;;;;;6.60;1.38;;;15.20;99.90;;;;;;5085419;28;20185;-80
2022/12/15 15:18:01;;;;;;;5.47;1.20;;;15.20;99.90;;;;;;5084030;28;20188;-79
2022/12/15 15:20:35;;;;;;;4.75;1.10;;;15.20;99.90;;;;;;5082033;28;20201;-80
2022/12/15 15:23:14;;;;;;;5.05;1.40;;;15.20;99.90;;;;;;5082584;28;20181;-81
2022/12/15 15:25:52;;;;;;;6.65;1.17;;;15.20;99.90;;;;;;5086691;28;20212;-80
2022/12/15 15:28:28;;;;;;;6.40;1.20;;;15.20;99.90;;;;;;5080139;28;20197;-80
2022/12/15 15:31:04;;;;;;;6.25;1.10;;;15.20;99.90;;;;;;5084647;28;20199;-81
2022/12/15 15:33:35;;;;;;;8.23;1.27;;;15.10;99.90;;;;;;5082685;28;20188;-82
2022/12/15 15:36:12;;;;;;;8.98;1.48;;;15.10;99.90;;;;;;5085273;28;20196;-81
2022/12/15 15:38:45;;;;;;;6.72;1.10;;;15.10;99.90;;;;;;4974457;28;3138219;-80
2022/12/15 15:41:19;;;;;;;7.00;1.20;;;15.00;99.90;;;;;;5083611;28;20181;-80
2022/12/15 15:43:51;;;;;;;7.60;1.30;;;15.00;99.90;;;;;;5082683;28;20220;-81
2022/12/15 15:46:24;;;;;;;3.67;1.20;;;15.00;99.90;;;;;;5078027;28;20212;-82
2022/12/15 15:48:57;;;;;;;6.88;1.20;;;15.10;99.90;;;;;;5087554;28;20196;-81
2022/12/15 15:51:31;;;;;;;6.93;1.38;;;15.10;99.90;;;;;;5084172;28;20185;-81